Time;durP1;ratioP1;P1;durP2;ratioP2;P2;SDS_P1;SDS_P2;PMS_P1;PMS_P2;Temp;Humidity;BMP_temperature;BMP_pressure;BME280_temperature;BME280_humidity;BME280_pressure;Samples;Min_cycle;Max_cycle;Signal;HPM_P1;HPM_P2
2024/01/13 00:01:49;;;;;;;32.40;17.95;;;;;;;1.60;84.67;98608.91;5051082;28;20801;-57
2024/01/13 00:04:15;;;;;;;31.58;19.23;;;;;;;2.16;83.80;98699.88;5051138;28;20178;-57
2024/01/13 00:06:41;;;;;;;34.20;18.13;;;;;;;1.61;82.51;98587.63;5051154;28;20186;-57
2024/01/13 00:09:06;;;;;;;30.27;17.63;;;;;;;1.36;81.18;98551.81;5050953;28;20223;-57
2024/01/13 00:11:32;;;;;;;30.27;18.00;;;;;;;2.06;80.96;98686.53;5050823;28;20197;-57
2024/01/13 00:13:57;;;;;;;29.88;16.83;;;;;;;1.45;81.67;98610.19;5050819;28;20288;-57
2024/01/13 00:16:23;;;;;;;29.85;17.85;;;;;;;2.08;82.50;98691.59;5011015;28;20195;-57
2024/01/13 00:18:48;;;;;;;34.70;17.98;;;;;;;1.39;82.90;98597.63;5011238;28;20214;-57
2024/01/13 00:21:14;;;;;;;35.50;17.83;;;;;;;1.48;83.01;98616.91;5011085;28;20187;-57
2024/01/13 00:23:41;;;;;;;30.42;18.73;;;;;;;1.70;82.99;98674.06;5010976;28;20214;-57
2024/01/13 00:26:06;;;;;;;33.75;18.08;;;;;;;1.83;83.97;98706.81;5010915;28;20236;-57
2024/01/13 00:28:32;;;;;;;30.23;17.65;;;;;;;1.95;84.01;98686.03;5024992;28;20284;-57
2024/01/13 00:30:57;;;;;;;34.45;17.58;;;;;;;1.42;83.98;98632.38;5030558;28;20186;-57
2024/01/13 00:33:22;;;;;;;31.00;17.90;;;;;;;1.38;83.58;98595.97;5030684;28;20658;-57
2024/01/13 00:35:48;;;;;;;34.58;19.17;;;;;;;2.09;82.67;98698.38;5030527;28;20214;-57
2024/01/13 00:38:13;;;;;;;34.67;18.73;;;;;;;1.92;83.26;98670.00;5030574;28;20178;-58
2024/01/13 00:40:39;;;;;;;30.55;17.85;;;;;;;1.62;83.39;98625.81;5030524;28;20677;-57
2024/01/13 00:43:04;;;;;;;34.35;18.33;;;;;;;1.52;83.14;98632.06;5030367;28;20221;-57
2024/01/13 00:45:30;;;;;;;34.95;18.45;;;;;;;1.76;83.21;98640.72;5030440;28;20210;-57
2024/01/13 00:47:55;;;;;;;32.53;17.35;;;;;;;1.64;82.76;98608.75;5075620;28;20223;-58
2024/01/13 00:50:20;;;;;;;32.75;18.27;;;;;;;2.23;82.72;98704.72;5092855;28;20175;-57
2024/01/13 00:52:46;;;;;;;36.55;18.67;;;;;;;2.23;82.22;98681.75;5092842;28;20180;-57
2024/01/13 00:55:11;;;;;;;32.72;18.00;;;;;;;1.93;81.96;98626.56;5092370;28;20203;-56
2024/01/13 00:57:37;;;;;;;32.90;18.00;;;;;;;2.37;82.07;98701.75;5092683;28;20184;-56
2024/01/13 01:00:03;;;;;;;31.65;17.45;;;;;;;2.04;81.98;98628.81;5092734;28;20214;-56
2024/01/13 01:02:29;;;;;;;30.90;17.17;;;;;;;2.16;81.84;98638.63;5092308;28;20211;-56
2024/01/13 01:04:54;;;;;;;32.88;18.08;;;;;;;2.07;81.68;98618.47;5092813;28;20204;-56
2024/01/13 01:07:20;;;;;;;30.95;17.33;;;;;;;2.11;81.88;98631.09;5092288;28;20214;-56
2024/01/13 01:09:45;;;;;;;31.65;16.90;;;;;;;2.01;82.15;98611.88;5092177;28;20208;-56
2024/01/13 01:12:10;;;;;;;32.05;18.30;;;;;;;2.27;81.85;98655.25;5092489;28;20173;-56
2024/01/13 01:14:36;;;;;;;30.58;17.40;;;;;;;2.28;80.22;98656.91;5091989;28;20192;-56
2024/01/13 01:17:01;;;;;;;29.45;16.80;;;;;;;1.65;79.98;98566.25;5092027;28;20172;-56
2024/01/13 01:19:27;;;;;;;29.42;17.25;;;;;;;2.29;80.77;98673.91;5091830;28;20220;-56
2024/01/13 01:21:52;;;;;;;30.42;16.67;;;;;;;1.75;81.09;98581.22;5092288;28;20193;-56
2024/01/13 01:24:18;;;;;;;28.05;16.50;;;;;;;1.54;81.27;98561.50;5092256;28;20189;-57
2024/01/13 01:26:43;;;;;;;30.75;18.08;;;;;;;1.66;81.12;98561.13;5092170;28;20173;-56
2024/01/13 01:29:08;;;;;;;28.40;17.25;;;;;;;2.23;81.34;98671.53;5092367;28;20175;-56
2024/01/13 01:31:34;;;;;;;31.55;16.83;;;;;;;2.22;81.47;98653.75;5092091;28;20168;-56
2024/01/13 01:34:00;;;;;;;25.52;15.43;;;;;;;2.19;81.63;98649.56;5091989;28;20626;-56
2024/01/13 01:36:25;;;;;;;29.73;15.63;;;;;;;2.03;82.11;98627.09;5092049;28;20188;-56
2024/01/13 01:38:51;;;;;;;29.17;15.95;;;;;;;2.35;82.31;98653.28;5091983;28;20191;-57
2024/01/13 01:41:16;;;;;;;30.98;16.17;;;;;;;1.83;82.41;98569.09;5091364;28;20172;-57
2024/01/13 01:43:42;;;;;;;30.95;16.55;;;;;;;1.72;82.52;98553.28;5091892;28;20175;-57
2024/01/13 01:46:11;;;;;;;29.48;16.55;;;;;;;1.79;82.09;98552.19;5091844;28;20176;-57
2024/01/13 01:48:39;;;;;;;32.55;17.73;;;;;;;1.76;81.76;98551.47;5091572;28;20593;-57
2024/01/13 01:51:05;;;;;;;29.02;16.98;;;;;;;2.18;81.96;98636.84;5069103;28;20189;-57
2024/01/13 01:53:32;;;;;;;28.95;16.80;;;;;;;1.57;82.07;98546.09;5069288;28;20651;-57
2024/01/13 01:56:00;;;;;;;29.85;17.00;;;;;;;1.83;81.96;98570.78;5069171;28;20213;-57
2024/01/13 01:58:26;;;;;;;30.92;16.48;;;;;;;1.42;81.55;98577.13;5069186;28;20177;-57
2024/01/13 02:00:51;;;;;;;28.63;16.88;;;;;;;1.82;80.25;98643.91;5069194;28;20185;-57
2024/01/13 02:03:17;;;;;;;27.60;16.27;;;;;;;1.30;81.44;98549.47;5069293;28;20173;-57
2024/01/13 02:05:42;;;;;;;32.85;17.75;;;;;;;1.37;81.66;98550.13;5069203;28;20283;-57
2024/01/13 02:08:08;;;;;;;27.17;15.35;;;;;;;1.19;82.59;98533.69;5069068;28;20177;-57
2024/01/13 02:10:34;;;;;;;31.27;17.15;;;;;;;1.34;83.29;98537.47;5069107;28;20196;-57
2024/01/13 02:12:59;;;;;;;32.35;17.50;;;;;;;1.72;83.23;98585.59;5069198;28;20730;-57
2024/01/13 02:15:25;;;;;;;30.35;17.25;;;;;;;1.72;82.77;98572.81;5068967;28;20233;-57
2024/01/13 02:17:50;;;;;;;36.13;18.20;;;;;;;1.71;82.14;98563.50;5068863;28;20228;-57
2024/01/13 02:20:16;;;;;;;31.38;16.67;;;;;;;2.18;81.20;98632.59;5028980;28;20190;-57
2024/01/13 02:22:41;;;;;;;30.60;16.65;;;;;;;2.17;80.86;98625.78;5024240;28;20325;-57
2024/01/13 02:25:08;;;;;;;28.55;15.38;;;;;;;2.35;80.75;98644.81;5029036;28;20241;-57
2024/01/13 02:27:33;;;;;;;27.33;15.98;;;;;;;1.80;79.95;98540.25;5028841;28;20331;-57
2024/01/13 02:29:59;;;;;;;30.35;17.05;;;;;;;1.61;80.89;98544.28;5028980;28;20232;-57
2024/01/13 02:32:24;;;;;;;29.52;16.70;;;;;;;2.16;80.81;98639.44;5028795;28;20190;-57
2024/01/13 02:34:50;;;;;;;29.67;16.38;;;;;;;2.28;81.18;98653.53;5028889;28;20272;-57
2024/01/13 02:37:15;;;;;;;20.70;13.68;;;;;;;2.27;76.04;98636.56;5028986;28;20577;-57
2024/01/13 02:39:41;;;;;;;24.30;14.48;;;;;;;2.04;75.72;98604.09;5028964;28;20668;-57
2024/01/13 02:42:06;;;;;;;17.20;10.38;;;;;;;2.20;71.32;98643.56;5028912;28;20195;-57
2024/01/13 02:44:32;;;;;;;15.52;10.27;;;;;;;2.21;68.78;98631.63;5028884;28;20188;-57
2024/01/13 02:46:57;;;;;;;13.15;9.25;;;;;;;2.10;67.66;98624.31;5028896;28;20677;-57
2024/01/13 02:49:23;;;;;;;15.63;9.25;;;;;;;1.41;67.41;98514.28;5028822;28;20255;-57
2024/01/13 02:51:48;;;;;;;10.93;7.95;;;;;;;1.62;66.29;98579.94;5043494;28;20585;-57
2024/01/13 02:54:14;;;;;;;16.17;8.73;;;;;;;1.23;66.02;98529.31;5083380;28;20573;-57
2024/01/13 02:56:39;;;;;;;12.80;8.27;;;;;;;1.10;65.97;98516.09;5095161;28;20177;-57
2024/01/13 02:59:06;;;;;;;14.02;8.55;;;;;;;0.94;66.40;98514.88;5095048;28;20648;-57
2024/01/13 03:01:32;;;;;;;13.50;8.25;;;;;;;1.54;65.74;98626.94;5094717;28;20188;-57
2024/01/13 03:03:58;;;;;;;13.63;8.00;;;;;;;1.06;66.01;98557.81;5094955;28;20177;-57
2024/01/13 03:06:24;;;;;;;11.90;8.65;;;;;;;0.81;66.46;98536.47;5094864;28;20175;-57
2024/01/13 03:08:50;;;;;;;15.93;9.13;;;;;;;1.33;65.84;98628.38;5094603;28;20199;-57
2024/01/13 03:11:15;;;;;;;12.85;8.00;;;;;;;1.38;66.40;98630.78;5094739;28;20172;-56
2024/01/13 03:13:41;;;;;;;14.35;7.82;;;;;;;0.83;64.48;98555.06;5094604;28;20176;-57
2024/01/13 03:16:06;;;;;;;16.70;9.15;;;;;;;1.44;65.08;98645.91;5094633;28;20246;-57
2024/01/13 03:18:32;;;;;;;13.95;8.20;;;;;;;0.84;64.14;98546.59;5094636;28;20216;-57
2024/01/13 03:20:57;;;;;;;16.48;8.57;;;;;;;1.20;64.66;98605.84;5051839;28;20271;-57
2024/01/13 03:23:23;;;;;;;12.50;8.23;;;;;;;0.68;64.97;98530.06;5051845;28;20260;-57
2024/01/13 03:25:48;;;;;;;12.00;7.90;;;;;;;0.89;64.09;98543.91;5051754;28;20189;-57
2024/01/13 03:28:14;;;;;;;15.52;9.52;;;;;;;1.48;64.93;98648.34;5051826;28;20557;-57
2024/01/13 03:30:39;;;;;;;12.85;7.78;;;;;;;0.91;64.97;98548.09;5051732;28;20181;-57
2024/01/13 03:33:05;;;;;;;16.73;9.15;;;;;;;1.49;64.66;98655.13;5051588;28;20698;-57
2024/01/13 03:35:30;;;;;;;16.33;9.23;;;;;;;1.51;65.00;98653.34;5051618;28;20213;-57
2024/01/13 03:37:56;;;;;;;17.70;10.75;;;;;;;1.08;65.31;98579.00;5051326;28;20196;-57
2024/01/13 03:40:21;;;;;;;13.90;9.13;;;;;;;1.60;65.47;98662.44;5051508;28;20185;-57
2024/01/13 03:42:47;;;;;;;17.70;10.27;;;;;;;1.42;64.26;98658.69;5051486;28;20715;-57
2024/01/13 03:45:12;;;;;;;14.35;9.35;;;;;;;1.41;64.58;98667.22;5051540;28;20181;-57
2024/01/13 03:47:39;;;;;;;19.13;10.60;;;;;;;1.07;64.25;98628.25;5051454;28;20186;-57
2024/01/13 03:50:06;;;;;;;12.90;8.05;;;;;;;1.20;64.79;98683.13;5051362;28;20628;-58
2024/01/13 03:52:32;;;;;;;16.98;10.18;;;;;;;1.21;65.42;98682.25;5051319;28;20572;-57
2024/01/13 03:54:57;;;;;;;18.02;9.48;;;;;;;0.82;64.70;98629.81;5051287;28;20198;-57
2024/01/13 03:57:22;;;;;;;16.20;9.40;;;;;;;0.73;64.77;98629.22;5051272;28;20185;-57
2024/01/13 03:59:48;;;;;;;18.45;9.40;;;;;;;0.66;65.41;98625.16;5051150;28;20185;-57
2024/01/13 04:02:14;;;;;;;17.50;10.60;;;;;;;0.50;65.45;98611.16;5051201;28;20200;-57
2024/01/13 04:04:39;;;;;;;16.92;9.93;;;;;;;0.32;65.66;98581.09;5081854;28;20328;-57
2024/01/13 04:07:04;;;;;;;18.35;10.80;;;;;;;0.16;65.33;98560.28;5093759;28;20192;-57
2024/01/13 04:09:30;;;;;;;14.65;9.20;;;;;;;0.77;65.91;98667.28;5093648;28;20169;-57
2024/01/13 04:11:55;;;;;;;20.42;11.55;;;;;;;0.91;65.89;98677.13;5093650;28;20176;-57
2024/01/13 04:14:21;;;;;;;17.20;10.45;;;;;;;0.74;65.68;98651.25;5093797;28;20677;-56
2024/01/13 04:16:47;;;;;;;17.63;10.18;;;;;;;0.46;65.97;98605.31;5093561;28;20173;-57
2024/01/13 04:19:12;;;;;;;17.05;9.77;;;;;;;0.19;66.30;98565.28;5093541;28;20220;-57
2024/01/13 04:21:39;;;;;;;16.85;9.13;;;;;;;0.03;66.43;98543.69;5093526;28;20168;-57
2024/01/13 04:24:04;;;;;;;18.23;10.40;;;;;;;0.29;66.26;98589.63;5093363;28;20172;-57
2024/01/13 04:26:30;;;;;;;17.98;10.10;;;;;;;0.22;66.60;98585.56;5093349;28;20227;-57
2024/01/13 04:28:55;;;;;;;13.68;8.13;;;;;;;0.43;66.26;98615.56;5093242;28;20639;-57
2024/01/13 04:31:21;;;;;;;17.58;8.85;;;;;;;0.29;66.30;98594.72;5092933;28;20571;-57
2024/01/13 04:33:46;;;;;;;16.77;10.13;;;;;;;0.18;66.98;98578.06;5093157;28;20237;-57
2024/01/13 04:36:12;;;;;;;20.05;9.40;;;;;;;0.51;66.66;98620.47;5093016;28;20696;-57
2024/01/13 04:38:37;;;;;;;26.67;13.63;;;;;;;0.64;67.60;98637.13;5093436;28;20267;-57
2024/01/13 04:41:03;;;;;;;29.10;10.65;;;;;;;0.42;67.07;98613.06;5093004;28;20172;-57
2024/01/13 04:43:28;;;;;;;16.60;9.73;;;;;;;0.21;67.06;98570.34;5093026;28;20177;-57
2024/01/13 04:45:54;;;;;;;16.38;9.77;;;;;;;0.67;66.95;98658.22;5092550;28;20177;-57
2024/01/13 04:48:20;;;;;;;17.65;10.68;;;;;;;0.40;67.83;98610.56;5092523;28;20188;-57
2024/01/13 04:50:45;;;;;;;15.60;9.65;;;;;;;0.72;67.54;98664.03;5092852;28;20207;-57
2024/01/13 04:53:11;;;;;;;17.80;10.85;;;;;;;0.80;67.16;98679.09;5092842;28;20172;-57
2024/01/13 04:55:36;;;;;;;19.98;10.68;;;;;;;0.19;67.10;98583.09;5092695;28;20701;-57
2024/01/13 04:58:02;;;;;;;21.00;11.25;;;;;;;0.75;67.37;98675.84;5092475;28;20177;-57
2024/01/13 05:00:28;;;;;;;17.35;10.02;;;;;;;0.79;67.78;98682.53;5092718;28;20180;-57
2024/01/13 05:02:53;;;;;;;18.88;10.45;;;;;;;0.58;67.07;98655.06;5092650;28;20187;-56
2024/01/13 05:05:19;;;;;;;17.40;11.05;;;;;;;0.19;66.91;98579.72;5092639;28;20172;-57
2024/01/13 05:07:44;;;;;;;17.42;10.55;;;;;;;0.84;66.49;98685.81;5092567;28;20181;-57
2024/01/13 05:10:11;;;;;;;17.05;9.35;;;;;;;0.48;65.63;98631.56;5092513;28;20218;-57
2024/01/13 05:12:36;;;;;;;18.92;11.00;;;;;;;0.83;66.54;98686.69;5092508;28;20173;-57
2024/01/13 05:15:02;;;;;;;15.80;10.30;;;;;;;0.53;65.70;98641.63;5091952;28;20253;-57
2024/01/13 05:17:27;;;;;;;16.58;10.82;;;;;;;0.51;65.31;98628.09;5092095;28;20180;-57
2024/01/13 05:19:52;;;;;;;18.52;10.60;;;;;;;0.25;65.52;98594.84;5092391;28;20187;-57
2024/01/13 05:22:18;;;;;;;19.17;10.75;;;;;;;0.87;65.03;98696.75;5092287;28;20172;-57
2024/01/13 05:24:44;;;;;;;21.08;9.93;;;;;;;0.74;64.58;98672.47;5092328;28;20181;-57
2024/01/13 05:27:09;;;;;;;15.20;9.23;;;;;;;0.55;64.67;98650.91;5092146;28;20188;-57
2024/01/13 05:29:34;;;;;;;20.83;10.07;;;;;;;0.47;64.85;98654.50;5092189;28;20175;-57
2024/01/13 05:32:00;;;;;;;18.90;11.10;;;;;;;0.28;65.94;98635.47;5091800;28;20657;-57
2024/01/13 05:34:25;;;;;;;14.50;10.40;;;;;;;0.20;65.51;98610.22;5092004;28;20199;-57
2024/01/13 05:36:51;;;;;;;20.52;11.80;;;;;;;-0.14;64.98;98533.94;5092456;28;20196;-57
2024/01/13 05:39:16;;;;;;;19.40;10.75;;;;;;;0.59;64.42;98655.03;5092069;28;20172;-57
2024/01/13 05:41:42;;;;;;;20.67;12.18;;;;;;;0.54;64.70;98649.22;5092000;28;20180;-57
2024/01/13 05:44:07;;;;;;;19.17;11.02;;;;;;;0.58;64.91;98640.63;5091996;28;20168;-57
2024/01/13 05:46:32;;;;;;;20.83;11.80;;;;;;;0.37;65.57;98595.34;5091997;28;20177;-57
2024/01/13 05:49:01;;;;;;;20.27;12.00;;;;;;;0.94;65.95;98689.78;5092212;28;20196;-57
2024/01/13 05:51:26;;;;;;;18.38;10.48;;;;;;;0.60;64.45;98607.50;5091812;28;20179;-57
2024/01/13 05:53:51;;;;;;;20.08;11.93;;;;;;;0.43;65.06;98574.84;5091906;28;20184;-57
2024/01/13 05:56:17;;;;;;;18.58;11.20;;;;;;;0.57;66.42;98605.88;5048957;28;20210;-57
2024/01/13 05:58:42;;;;;;;19.45;11.02;;;;;;;1.01;66.85;98658.19;5049142;28;20761;-56
2024/01/13 06:01:08;;;;;;;15.48;10.15;;;;;;;1.01;67.10;98636.06;5048744;28;20185;-57
2024/01/13 06:03:34;;;;;;;18.92;10.10;;;;;;;0.96;66.30;98607.38;5049206;28;20283;-57
2024/01/13 06:05:59;;;;;;;17.35;10.65;;;;;;;1.27;66.36;98643.84;5049084;28;20663;-57
2024/01/13 06:08:25;;;;;;;17.98;9.77;;;;;;;1.08;67.10;98607.03;5048913;28;20328;-58
2024/01/13 06:10:51;;;;;;;14.60;9.13;;;;;;;1.30;67.91;98653.94;5049007;28;20190;-58
2024/01/13 06:13:16;;;;;;;18.45;11.13;;;;;;;1.36;68.04;98658.06;5049118;28;20265;-58
2024/01/13 06:15:41;;;;;;;15.90;10.77;;;;;;;1.06;66.99;98596.03;5048902;28;20216;-57
2024/01/13 06:18:07;;;;;;;17.63;9.55;;;;;;;1.20;67.88;98641.50;5046663;28;20198;-56
2024/01/13 06:20:33;;;;;;;18.92;10.23;;;;;;;1.18;68.25;98650.91;5039788;28;20280;-57
2024/01/13 06:22:59;;;;;;;17.02;10.02;;;;;;;1.15;68.32;98639.09;5048503;28;20676;-57
2024/01/13 06:25:24;;;;;;;18.13;9.88;;;;;;;0.54;68.31;98537.22;5048591;28;20624;-57
2024/01/13 06:27:50;;;;;;;17.30;9.77;;;;;;;1.16;68.91;98653.50;5081977;28;20195;-57
2024/01/13 06:30:15;;;;;;;16.45;10.07;;;;;;;0.75;69.41;98577.38;5052365;28;20243;-57
2024/01/13 06:32:41;;;;;;;18.58;10.70;;;;;;;0.82;69.89;98583.16;5052655;28;20186;-58
2024/01/13 06:35:07;;;;;;;19.90;10.82;;;;;;;1.34;66.31;98647.88;5052506;28;20244;-58
2024/01/13 06:37:32;;;;;;;16.33;10.77;;;;;;;1.25;66.69;98630.34;5052531;28;20221;-58
2024/01/13 06:39:58;;;;;;;20.05;11.25;;;;;;;1.27;66.87;98645.56;5052510;28;20213;-58
2024/01/13 06:42:23;;;;;;;16.70;9.48;;;;;;;1.31;65.41;98640.34;5052517;28;20193;-58
2024/01/13 06:44:49;;;;;;;21.85;11.93;;;;;;;0.78;64.33;98531.44;5052424;28;20194;-58
2024/01/13 06:47:15;;;;;;;21.05;12.40;;;;;;;1.05;65.11;98586.72;5052422;28;20243;-56
2024/01/13 06:49:40;;;;;;;21.42;12.02;;;;;;;1.24;65.12;98608.25;5052352;28;20208;-56
2024/01/13 06:52:08;;;;;;;21.45;11.77;;;;;;;1.40;66.07;98629.06;5052008;28;20226;-56
2024/01/13 06:54:34;;;;;;;20.05;11.13;;;;;;;1.06;63.96;98562.09;5052209;28;20205;-56
2024/01/13 06:57:00;;;;;;;20.15;10.35;;;;;;;1.46;62.18;98636.53;5030645;28;20248;-56
2024/01/13 06:59:26;;;;;;;17.83;10.38;;;;;;;1.46;62.64;98634.78;5031997;28;20186;-56
2024/01/13 07:01:51;;;;;;;16.05;10.60;;;;;;;1.38;62.54;98626.53;5047421;28;20583;-56
2024/01/13 07:04:17;;;;;;;15.88;9.23;;;;;;;1.28;62.12;98630.22;5052310;28;20178;-56
2024/01/13 07:06:42;;;;;;;17.90;10.68;;;;;;;1.29;62.39;98639.53;5052209;28;20206;-56
2024/01/13 07:09:08;;;;;;;19.90;10.23;;;;;;;0.84;61.52;98582.25;5052247;28;20178;-57
2024/01/13 07:11:33;;;;;;;16.25;10.15;;;;;;;1.23;61.53;98647.34;5032077;28;20190;-57
2024/01/13 07:13:58;;;;;;;18.33;10.05;;;;;;;1.22;61.06;98649.94;5032195;28;20625;-57
2024/01/13 07:16:24;;;;;;;16.25;8.98;;;;;;;0.71;61.41;98567.34;5032106;28;20222;-57
2024/01/13 07:18:49;;;;;;;15.23;9.45;;;;;;;0.90;59.72;98588.88;5032016;28;20292;-57
2024/01/13 07:21:15;;;;;;;17.98;9.15;;;;;;;0.93;59.00;98604.03;5031979;28;20693;-57
2024/01/13 07:23:43;;;;;;;19.27;10.32;;;;;;;0.85;59.49;98594.09;5031960;28;20197;-59
2024/01/13 07:26:09;;;;;;;18.83;9.70;;;;;;;0.73;59.02;98579.16;5031981;28;20681;-56
2024/01/13 07:28:35;;;;;;;14.23;9.00;;;;;;;0.93;59.22;98602.34;5061626;28;20255;-57
2024/01/13 07:31:00;;;;;;;16.35;9.93;;;;;;;1.28;58.44;98665.91;5071765;28;20192;-57
2024/01/13 07:33:26;;;;;;;14.98;8.70;;;;;;;0.70;59.04;98553.75;5066613;28;20204;-57
2024/01/13 07:35:51;;;;;;;16.92;9.75;;;;;;;0.86;58.30;98569.44;5060183;28;20219;-57
2024/01/13 07:38:16;;;;;;;15.25;9.75;;;;;;;0.85;58.81;98555.91;5050434;28;20190;-56
2024/01/13 07:40:42;;;;;;;16.48;9.75;;;;;;;1.56;57.72;98676.16;5050740;28;20239;-57
2024/01/13 07:43:07;;;;;;;14.13;8.48;;;;;;;1.33;57.11;98655.56;5072082;28;20227;-56
2024/01/13 07:45:33;;;;;;;17.08;10.27;;;;;;;0.88;57.82;98565.97;5081034;28;20185;-57
2024/01/13 07:48:01;;;;;;;16.88;10.70;;;;;;;1.45;58.62;98658.63;5073729;28;20192;-58
2024/01/13 07:50:26;;;;;;;15.77;8.50;;;;;;;1.28;57.07;98627.69;5084320;28;20670;-56
2024/01/13 07:52:52;;;;;;;16.27;9.32;;;;;;;0.90;57.06;98559.16;5093818;28;20176;-57
2024/01/13 07:55:17;;;;;;;15.40;8.98;;;;;;;0.85;57.08;98557.59;5093620;28;20203;-57
2024/01/13 07:57:43;;;;;;;12.52;7.70;;;;;;;1.21;57.20;98608.34;5093799;28;20172;-56
2024/01/13 08:00:09;;;;;;;16.00;9.15;;;;;;;0.79;57.43;98561.16;5050915;28;20190;-57
2024/01/13 08:02:34;;;;;;;20.52;9.88;;;;;;;0.92;57.73;98600.69;5050031;28;20339;-60
2024/01/13 08:05:00;;;;;;;14.57;9.55;;;;;;;0.67;58.29;98548.75;5031130;28;20281;-58
2024/01/13 08:07:25;;;;;;;14.70;8.50;;;;;;;0.94;57.62;98580.28;5031182;28;20214;-58
2024/01/13 08:09:52;;;;;;;17.92;10.02;;;;;;;0.36;57.78;98479.19;5030073;28;20276;-58
2024/01/13 08:12:17;;;;;;;21.40;12.05;;;;;;;1.48;58.94;98653.44;5031103;28;20688;-58
2024/01/13 08:14:43;;;;;;;21.50;11.45;;;;;;;1.45;58.82;98653.53;5031307;28;20332;-58
2024/01/13 08:17:08;;;;;;;16.15;10.13;;;;;;;1.31;58.37;98609.75;5031019;28;20740;-58
2024/01/13 08:19:36;;;;;;;16.08;9.30;;;;;;;1.37;57.37;98604.50;5024729;28;20648;-58
2024/01/13 08:22:02;;;;;;;13.80;7.72;;;;;;;1.34;56.65;98599.47;5017294;28;20239;-57
2024/01/13 08:24:28;;;;;;;16.25;9.43;;;;;;;1.60;57.21;98642.91;5010073;28;20206;-58
2024/01/13 08:26:54;;;;;;;16.52;9.55;;;;;;;1.55;56.97;98618.41;4997528;28;20187;-57
2024/01/13 08:29:19;;;;;;;16.50;9.63;;;;;;;1.46;55.46;98573.63;5014175;28;20289;-58
2024/01/13 08:31:48;;;;;;;13.43;8.95;;;;;;;1.93;54.91;98664.81;5025966;28;20604;-58
2024/01/13 08:34:13;;;;;;;15.32;9.32;;;;;;;1.48;54.90;98582.06;5030750;28;20665;-58
2024/01/13 08:36:41;;;;;;;17.20;9.73;;;;;;;2.10;54.55;98674.53;5045151;28;20201;-58
2024/01/13 08:39:06;;;;;;;17.05;9.63;;;;;;;1.54;54.68;98563.19;5010782;28;20199;-58
2024/01/13 08:41:32;;;;;;;14.90;8.73;;;;;;;1.92;54.25;98630.00;5010835;28;20210;-58
2024/01/13 08:43:57;;;;;;;17.13;9.27;;;;;;;1.95;54.10;98614.63;5010756;28;20617;-58
2024/01/13 08:46:23;;;;;;;15.70;8.40;;;;;;;1.78;53.50;98565.84;5010767;28;20273;-58
2024/01/13 08:48:49;;;;;;;14.80;9.48;;;;;;;2.44;51.98;98670.03;5012979;28;20304;-58
2024/01/13 08:51:15;;;;;;;18.00;11.15;;;;;;;2.09;52.21;98615.00;5018222;28;20741;-58
2024/01/13 08:53:40;;;;;;;14.00;8.85;;;;;;;1.80;52.13;98573.41;5010120;28;20282;-58
2024/01/13 08:56:06;;;;;;;16.42;9.75;;;;;;;1.88;51.78;98572.28;5010248;28;20199;-58
2024/01/13 08:58:31;;;;;;;20.45;10.68;;;;;;;2.26;52.10;98625.50;5010214;28;20183;-58
2024/01/13 09:00:57;;;;;;;13.18;7.57;;;;;;;1.97;52.08;98577.13;5010297;28;20182;-58
2024/01/13 09:03:22;;;;;;;13.50;8.68;;;;;;;2.20;51.96;98638.47;5010162;28;20194;-58
2024/01/13 09:05:48;;;;;;;15.63;9.20;;;;;;;2.14;52.28;98589.31;5010136;28;20188;-58
2024/01/13 09:08:13;;;;;;;18.42;9.85;;;;;;;2.60;52.44;98649.06;5010194;28;20211;-57
2024/01/13 09:10:39;;;;;;;17.63;10.00;;;;;;;2.68;52.83;98641.97;5056135;28;20185;-58
2024/01/13 09:13:05;;;;;;;14.55;10.02;;;;;;;2.73;52.06;98650.31;5072108;28;20611;-57
2024/01/13 09:15:31;;;;;;;16.25;9.55;;;;;;;2.69;52.43;98620.66;5072154;28;20225;-57
2024/01/13 09:17:57;;;;;;;11.82;7.25;;;;;;;2.77;51.86;98623.78;5072038;28;20221;-57
2024/01/13 09:20:23;;;;;;;15.13;8.98;;;;;;;2.19;52.50;98557.69;5071897;28;20187;-58
2024/01/13 09:22:49;;;;;;;17.10;9.93;;;;;;;2.54;52.67;98633.94;5071961;28;20181;-59
2024/01/13 09:25:15;;;;;;;12.05;8.30;;;;;;;2.54;52.82;98626.28;5071946;28;20196;-58
2024/01/13 09:27:40;;;;;;;13.38;8.25;;;;;;;2.44;53.03;98603.63;5071510;28;20212;-59
2024/01/13 09:30:06;;;;;;;16.42;10.07;;;;;;;2.58;53.63;98625.28;5071936;28;20199;-60
2024/01/13 09:32:32;;;;;;;18.67;11.25;;;;;;;2.15;53.12;98522.94;5029380;28;20225;-58
2024/01/13 09:34:57;;;;;;;16.92;9.25;;;;;;;2.42;53.12;98578.19;5029381;28;20269;-58
2024/01/13 09:37:23;;;;;;;16.85;10.60;;;;;;;2.43;53.23;98581.53;5029395;28;20186;-58
2024/01/13 09:39:48;;;;;;;17.70;10.45;;;;;;;2.39;54.26;98560.41;5029383;28;20182;-58
2024/01/13 09:42:29;;;;;;;21.63;12.50;;;;;;;2.48;53.64;98537.13;5029233;28;20629;-58
2024/01/13 09:44:54;;;;;;;18.45;10.07;;;;;;;2.69;53.39;98563.63;5029425;28;20174;-58
2024/01/13 09:47:20;;;;;;;18.42;9.75;;;;;;;2.44;53.75;98507.47;5029186;28;20186;-57
2024/01/13 09:49:50;;;;;;;15.70;9.38;;;;;;;2.25;52.77;98468.16;5029553;28;20182;-58
2024/01/13 09:52:16;;;;;;;20.00;10.82;;;;;;;2.81;53.63;98569.13;5029299;28;20206;-58
2024/01/13 09:54:47;;;;;;;20.08;12.18;;;;;;;2.15;53.78;98466.78;4970457;28;20216;-58
2024/01/13 09:57:13;;;;;;;18.33;11.05;;;;;;;2.86;53.98;98562.13;4970585;28;20232;-58
2024/01/13 09:59:40;;;;;;;21.98;12.57;;;;;;;2.78;53.91;98548.81;4932131;29;20683;-57
2024/01/13 10:02:11;;;;;;;18.90;11.35;;;;;;;2.47;54.10;98486.94;4931185;29;20201;-57
2024/01/13 10:04:37;;;;;;;22.08;12.13;;;;;;;2.83;53.96;98521.38;4932031;29;20198;-58
2024/01/13 10:07:09;;;;;;;20.83;13.85;;;;;;;3.06;55.12;98534.16;4931875;29;20308;-58
2024/01/13 10:09:34;;;;;;;17.17;10.55;;;;;;;2.95;53.64;98495.38;4931814;29;20257;-58
2024/01/13 10:12:06;;;;;;;20.33;12.05;;;;;;;3.01;53.91;98484.09;4931991;29;20198;-58
2024/01/13 10:14:32;;;;;;;19.45;12.07;;;;;;;3.12;53.56;98493.03;4970342;28;20180;-58
2024/01/13 10:17:02;;;;;;;18.98;10.80;;;;;;;3.16;52.59;98471.56;4970410;28;20215;-58
2024/01/13 10:19:27;;;;;;;18.10;11.07;;;;;;;3.20;52.13;98470.56;4970280;28;20204;-58
2024/01/13 10:21:53;;;;;;;13.95;10.18;;;;;;;3.01;51.74;98438.09;4970441;28;20188;-58
2024/01/13 10:24:18;;;;;;;13.68;8.93;;;;;;;2.79;52.14;98437.22;4970263;28;20248;-57
2024/01/13 10:26:44;;;;;;;18.33;11.60;;;;;;;3.15;52.87;98481.88;5023859;28;20182;-58
2024/01/13 10:29:09;;;;;;;19.58;12.23;;;;;;;3.39;53.48;98522.66;5029075;28;20170;-58
2024/01/13 10:31:36;;;;;;;21.25;12.85;;;;;;;3.26;53.66;98487.41;5029012;28;20186;-58
2024/01/13 10:34:02;;;;;;;21.55;13.15;;;;;;;3.61;53.12;98532.91;5028931;28;20183;-58
2024/01/13 10:36:27;;;;;;;22.70;13.20;;;;;;;3.59;53.15;98509.94;5039355;28;20216;-58
2024/01/13 10:38:54;;;;;;;19.80;13.05;;;;;;;3.67;53.16;98513.03;5071244;28;20174;-57
2024/01/13 10:41:28;;;;;;;23.80;11.10;;;;;;;3.04;52.83;98423.47;5071047;28;20566;-57
2024/01/13 10:43:58;;;;;;;20.95;12.52;;;;;;;3.28;53.35;98457.50;5071283;28;20164;-58
2024/01/13 10:46:26;;;;;;;21.67;13.13;;;;;;;3.59;53.88;98509.94;5071207;28;20265;-58
2024/01/13 10:48:59;;;;;;;19.73;11.35;;;;;;;3.55;53.02;98500.72;5070881;28;20296;-58
2024/01/13 10:51:35;;;;;;;18.27;12.00;;;;;;;3.68;53.53;98509.56;5071169;28;20173;-58
2024/01/13 10:54:02;;;;;;;24.02;12.90;;;;;;;3.58;53.06;98457.13;5071148;28;20685;-58
2024/01/13 10:56:31;;;;;;;22.92;12.10;;;;;;;3.78;52.54;98475.06;5070863;28;20200;-58
2024/01/13 10:58:58;;;;;;;25.60;13.98;;;;;;;4.06;52.43;98498.63;5070929;28;20192;-58
2024/01/13 11:01:27;;;;;;;18.73;11.15;;;;;;;3.89;52.23;98443.88;5070606;28;20531;-58
2024/01/13 11:03:54;;;;;;;20.25;12.20;;;;;;;4.22;52.40;98479.19;5071082;28;20177;-58
2024/01/13 11:06:21;;;;;;;23.02;12.70;;;;;;;3.96;51.61;98435.91;5070877;28;20188;-58
2024/01/13 11:08:47;;;;;;;20.88;12.95;;;;;;;3.99;52.24;98433.22;5070861;28;20181;-58
2024/01/13 11:11:19;;;;;;;22.42;11.98;;;;;;;3.69;51.21;98349.22;5070937;28;20181;-57
2024/01/13 11:13:50;;;;;;;15.60;10.10;;;;;;;4.57;50.18;98481.06;5072550;28;20253;-58
2024/01/13 11:16:21;;;;;;;16.83;10.88;;;;;;;4.48;50.13;98465.25;5074452;28;20192;-58
2024/01/13 11:18:51;;;;;;;21.25;11.48;;;;;;;4.49;50.08;98472.84;5031705;28;20194;-59
2024/01/13 11:21:19;;;;;;;17.13;10.05;;;;;;;4.27;50.24;98461.88;5032030;28;20214;-58
2024/01/13 11:23:53;;;;;;;17.55;9.95;;;;;;;4.42;50.05;98462.94;5031853;28;20178;-58